Time;durP1;ratioP1;P1;durP2;ratioP2;P2;SDS_P1;SDS_P2;PMS_P1;PMS_P2;Temp;Humidity;BMP_temperature;BMP_pressure;BME280_temperature;BME280_humidity;BME280_pressure;Samples;Min_cycle;Max_cycle;Signal;HPM_P1;HPM_P2
2023/03/09 00:00:11;;;;;;;12.20;9.40;;;;;;;12.04;58.40;98231.33;104788;1260;71338;-65
2023/03/09 00:02:39;;;;;;;11.30;9.50;;;;;;;12.04;59.07;98231.55;104588;1252;60889;-65
2023/03/09 00:05:11;;;;;;;10.50;8.70;;;;;;;11.99;59.10;98234.14;104722;1257;60864;-66
2023/03/09 00:07:39;;;;;;;10.50;8.90;;;;;;;12.01;59.26;98232.45;104757;1256;73365;-66
2023/03/09 00:10:10;;;;;;;11.70;9.60;;;;;;;11.99;58.99;98231.89;104798;1258;70555;-65
2023/03/09 00:12:39;;;;;;;10.70;9.30;;;;;;;12.02;59.24;98222.34;104676;1251;73217;-67
2023/03/09 00:15:10;;;;;;;12.10;9.50;;;;;;;12.04;59.28;98215.17;104738;1256;60870;-67
2023/03/09 00:17:43;;;;;;;10.20;8.90;;;;;;;12.05;58.58;98202.67;104828;1253;61130;-65
2023/03/09 00:20:18;;;;;;;11.60;9.90;;;;;;;12.04;58.57;98196.73;104700;1251;71509;-65
2023/03/09 00:22:49;;;;;;;11.30;9.80;;;;;;;12.05;58.54;98183.35;104701;1250;69569;-66
2023/03/09 00:25:19;;;;;;;15.30;9.90;;;;;;;12.05;58.16;98173.70;104715;1254;72206;-65
2023/03/09 00:27:49;;;;;;;10.50;8.80;;;;;;;12.00;58.96;98168.11;104726;1256;60777;-67
2023/03/09 00:30:18;;;;;;;10.70;8.70;;;;;;;11.96;59.28;98155.75;104834;1254;61229;-66
2023/03/09 00:32:49;;;;;;;10.50;9.10;;;;;;;11.93;59.20;98141.75;104751;1254;72588;-66
2023/03/09 00:35:19;;;;;;;10.20;9.00;;;;;;;11.86;60.09;98132.86;104800;1252;67778;-66
2023/03/09 00:37:49;;;;;;;9.20;8.00;;;;;;;11.88;59.76;98130.48;104824;1269;71320;-65
2023/03/09 00:40:18;;;;;;;10.20;8.50;;;;;;;11.88;59.39;98121.84;104883;1256;60796;-66
2023/03/09 00:42:46;;;;;;;10.00;8.70;;;;;;;11.90;59.91;98118.02;104694;1256;60751;-68
2023/03/09 00:45:15;;;;;;;11.50;8.60;;;;;;;11.95;60.09;98112.77;104834;1252;72770;-68
2023/03/09 00:47:44;;;;;;;10.20;9.10;;;;;;;12.01;59.88;98107.03;104880;1254;68205;-65
2023/03/09 00:50:14;;;;;;;11.40;9.40;;;;;;;12.05;59.99;98101.33;104800;1254;72157;-65
2023/03/09 00:52:43;;;;;;;13.30;9.20;;;;;;;12.08;59.65;98102.88;104676;1255;60933;-66
2023/03/09 00:55:11;;;;;;;11.30;9.00;;;;;;;12.11;59.54;98090.36;104780;1270;61453;-67
2023/03/09 00:57:40;;;;;;;10.80;8.90;;;;;;;12.14;59.40;98086.42;104713;1254;72664;-65
2023/03/09 01:00:09;;;;;;;11.00;9.20;;;;;;;12.10;60.45;98083.23;104901;1249;69162;-65
2023/03/09 01:02:38;;;;;;;12.10;9.00;;;;;;;12.14;60.32;98083.29;104605;1252;71858;-68
2023/03/09 01:05:11;;;;;;;11.70;9.50;;;;;;;12.20;60.68;98078.27;104866;1256;61149;-66
2023/03/09 01:07:40;;;;;;;12.00;9.00;;;;;;;12.24;60.08;98075.90;104913;1256;60866;-65
2023/03/09 01:10:11;;;;;;;11.90;8.50;;;;;;;12.22;61.09;98069.71;104568;1256;71405;-66
2023/03/09 01:12:39;;;;;;;11.00;8.40;;;;;;;12.28;60.46;98072.05;104635;1255;67738;-67
2023/03/09 01:15:10;;;;;;;11.70;9.20;;;;;;;12.33;60.43;98070.64;104764;1263;71434;-66
2023/03/09 01:17:39;;;;;;;10.40;8.50;;;;;;;12.36;59.86;98069.36;104718;1251;62847;-66
2023/03/09 01:20:11;;;;;;;13.00;9.20;;;;;;;12.37;59.82;98063.99;104913;1254;60846;-67
2023/03/09 01:22:40;;;;;;;10.60;8.30;;;;;;;12.37;60.41;98057.16;104719;1251;73519;-66
2023/03/09 01:25:09;;;;;;;10.60;8.50;;;;;;;12.37;60.39;98049.82;104929;1265;68280;-67
2023/03/09 01:27:38;;;;;;;9.50;7.80;;;;;;;12.39;60.30;98045.61;104619;1267;72262;-67
2023/03/09 01:30:07;;;;;;;10.90;9.00;;;;;;;12.40;60.36;98043.19;104666;1267;62276;-67
2023/03/09 01:32:36;;;;;;;11.70;8.20;;;;;;;12.41;60.16;98041.90;104794;1251;60896;-67
2023/03/09 01:35:05;;;;;;;7.60;6.90;;;;;;;12.47;59.85;98035.48;106019;1251;71822;-68
2023/03/09 01:37:35;;;;;;;8.50;7.40;;;;;;;12.51;59.98;98023.83;108096;1254;69430;-68
2023/03/09 01:40:06;;;;;;;9.60;7.30;;;;;;;12.49;59.98;98011.63;106382;1253;71241;-67
2023/03/09 01:42:35;;;;;;;9.60;7.50;;;;;;;12.47;60.10;98003.50;104850;1255;60859;-68
2023/03/09 01:45:18;;;;;;;9.40;7.40;;;;;;;12.49;60.15;98007.43;104930;1262;60827;-67
2023/03/09 01:47:49;;;;;;;10.50;7.60;;;;;;;12.52;59.61;98010.71;104806;1264;73228;-66
2023/03/09 01:50:19;;;;;;;8.30;7.00;;;;;;;12.57;59.79;98012.73;104953;1254;68073;-67
2023/03/09 01:52:49;;;;;;;8.30;7.30;;;;;;;12.58;59.67;98012.51;104489;1251;72018;-67
2023/03/09 01:55:22;;;;;;;7.50;6.50;;;;;;;12.64;59.62;98006.22;104698;1256;61685;-68
2023/03/09 01:57:53;;;;;;;8.50;7.00;;;;;;;12.63;59.89;97997.52;104975;1253;61669;-67
2023/03/09 02:00:24;;;;;;;9.30;7.80;;;;;;;12.62;59.40;98000.59;104801;1256;73399;-66
2023/03/09 02:03:01;;;;;;;7.80;7.00;;;;;;;12.69;59.05;98004.11;104761;1268;69389;-67
2023/03/09 02:05:36;;;;;;;8.20;6.70;;;;;;;12.73;59.28;98002.61;104591;1251;71636;-67
2023/03/09 02:08:05;;;;;;;10.30;7.30;;;;;;;12.70;58.57;98007.90;104707;1251;61782;-68
2023/03/09 02:10:43;;;;;;;7.80;7.00;;;;;;;12.74;58.80;98006.55;104665;1267;61215;-68
2023/03/09 02:13:20;;;;;;;7.30;6.60;;;;;;;12.74;58.49;98011.65;104583;1254;72054;-68
2023/03/09 02:15:49;;;;;;;8.10;7.00;;;;;;;12.72;59.00;98018.81;104742;1253;68717;-68
2023/03/09 02:18:19;;;;;;;9.40;6.80;;;;;;;12.72;58.54;98016.71;104744;1251;71480;-69
2023/03/09 02:21:20;;;;;;;7.60;6.80;;;;;;;12.76;58.41;98007.27;104681;1254;61647;-68
2023/03/09 02:24:19;;;;;;;7.50;6.80;;;;;;;12.80;58.49;98006.26;104498;1251;61586;-68
2023/03/09 02:26:51;;;;;;;6.90;6.20;;;;;;;12.81;57.81;98004.58;104740;1251;73489;-69
2023/03/09 02:29:20;;;;;;;7.90;7.00;;;;;;;12.87;57.92;98006.94;104675;1267;69024;-68
2023/03/09 02:31:48;;;;;;;9.20;7.60;;;;;;;12.87;57.71;98008.33;104628;1251;72235;-69
2023/03/09 02:34:17;;;;;;;8.20;7.20;;;;;;;12.83;58.03;98010.20;104633;1254;61702;-68
2023/03/09 02:36:47;;;;;;;7.70;6.90;;;;;;;12.82;58.37;98005.59;104837;1263;61691;-68
2023/03/09 02:39:37;;;;;;;8.20;7.10;;;;;;;12.81;57.98;98007.41;104765;1261;72922;-68
2023/03/09 02:42:06;;;;;;;10.10;7.30;;;;;;;12.85;58.18;98006.41;104843;1250;68919;-68
2023/03/09 02:44:35;;;;;;;7.70;6.80;;;;;;;12.89;57.97;98004.89;104773;1268;72498;-68
2023/03/09 02:47:08;;;;;;;8.40;7.00;;;;;;;12.91;57.77;98005.38;104931;1255;61582;-68
2023/03/09 02:49:37;;;;;;;8.00;6.60;;;;;;;12.93;57.36;98004.67;104824;1255;61772;-68
2023/03/09 02:52:06;;;;;;;7.60;6.30;;;;;;;12.93;57.44;97998.73;104641;1250;72662;-69
2023/03/09 02:54:36;;;;;;;7.20;6.30;;;;;;;12.93;56.87;97996.42;104849;1264;69445;-66
2023/03/09 02:57:08;;;;;;;7.70;6.90;;;;;;;12.94;57.28;97988.25;104830;1255;71111;-67
2023/03/09 02:59:36;;;;;;;7.40;6.70;;;;;;;12.98;56.90;97983.08;104872;1263;61606;-66
2023/03/09 03:02:04;;;;;;;8.20;7.30;;;;;;;12.99;56.71;97993.86;104958;1266;61681;-66
2023/03/09 03:04:33;;;;;;;10.50;7.20;;;;;;;12.98;56.79;98002.36;105291;1251;73384;-66
2023/03/09 03:07:02;;;;;;;8.90;7.20;;;;;;;13.02;56.81;98000.45;105084;1250;68660;-67
2023/03/09 03:09:31;;;;;;;7.20;6.50;;;;;;;13.03;56.40;97992.66;104826;1254;72948;-67
2023/03/09 03:12:06;;;;;;;7.60;6.70;;;;;;;13.04;56.55;97988.14;105245;1250;61718;-66
2023/03/09 03:14:36;;;;;;;8.80;7.30;;;;;;;13.05;56.32;97984.75;104971;1255;61680;-66
2023/03/09 03:17:05;;;;;;;11.80;6.90;;;;;;;13.08;56.62;97983.64;104736;1254;73473;-66
2023/03/09 03:19:33;;;;;;;8.60;7.50;;;;;;;13.14;56.11;97986.34;104772;1257;68247;-65
2023/03/09 03:22:03;;;;;;;9.10;7.30;;;;;;;13.11;55.97;97989.77;104856;1267;71074;-66
2023/03/09 03:24:36;;;;;;;8.90;7.00;;;;;;;13.11;55.99;97996.99;104948;1261;62170;-65
2023/03/09 03:27:05;;;;;;;7.30;6.60;;;;;;;13.18;55.94;98010.98;104883;1264;61104;-68
2023/03/09 03:29:34;;;;;;;7.20;6.50;;;;;;;13.23;55.40;98013.73;104695;1254;72503;-65
2023/03/09 03:32:02;;;;;;;9.60;7.60;;;;;;;13.24;55.34;98014.23;104844;1251;69082;-66
2023/03/09 03:34:31;;;;;;;7.90;6.80;;;;;;;13.21;55.60;98014.47;104613;1261;71626;-70
2023/03/09 03:37:04;;;;;;;9.00;7.30;;;;;;;13.20;56.18;98018.77;104645;1264;61711;-68
2023/03/09 03:39:33;;;;;;;7.60;6.80;;;;;;;13.26;55.78;98012.98;104894;1249;61077;-67
2023/03/09 03:42:03;;;;;;;7.40;6.60;;;;;;;13.28;55.60;98011.27;104815;1254;72479;-67
2023/03/09 03:44:32;;;;;;;9.00;6.60;;;;;;;13.32;56.25;98009.02;105044;1254;68898;-67
2023/03/09 03:47:01;;;;;;;7.30;6.40;;;;;;;13.33;55.39;98006.71;104963;1251;72127;-67
2023/03/09 03:49:29;;;;;;;8.40;6.30;;;;;;;13.33;55.70;97996.34;104886;1251;61594;-67
2023/03/09 03:51:59;;;;;;;8.20;6.90;;;;;;;13.29;56.44;97982.40;104866;1251;61612;-67
2023/03/09 03:54:27;;;;;;;9.50;7.00;;;;;;;13.25;56.27;97981.78;104735;1254;73161;-67
2023/03/09 03:56:57;;;;;;;7.60;6.80;;;;;;;13.25;56.17;97974.76;104810;1261;70213;-67
2023/03/09 03:59:25;;;;;;;8.20;7.10;;;;;;;13.16;56.28;97979.13;104596;1270;71368;-69
2023/03/09 04:01:54;;;;;;;9.30;6.70;;;;;;;13.18;56.45;97977.92;108824;1250;59782;-69
2023/03/09 04:04:22;;;;;;;7.60;6.30;;;;;;;13.22;56.71;97975.48;105894;1250;61773;-67
2023/03/09 04:06:56;;;;;;;9.00;6.60;;;;;;;13.24;56.09;97969.36;105340;1251;73430;-68
2023/03/09 04:09:27;;;;;;;6.90;6.30;;;;;;;13.22;56.00;97968.62;104902;1265;69037;-68
2023/03/09 04:11:58;;;;;;;6.80;6.10;;;;;;;13.19;56.63;97957.41;104825;1267;73289;-68
2023/03/09 04:14:27;;;;;;;6.50;5.80;;;;;;;13.20;56.79;97945.88;105087;1265;63105;-68
2023/03/09 04:16:57;;;;;;;8.20;6.10;;;;;;;13.22;56.70;97943.64;104607;1267;61597;-68
2023/03/09 04:19:28;;;;;;;6.70;5.90;;;;;;;13.29;55.96;97948.41;104868;1250;74340;-68
2023/03/09 04:21:59;;;;;;;7.50;6.40;;;;;;;13.29;56.13;97947.33;104489;1273;68300;-68
2023/03/09 04:24:29;;;;;;;6.60;5.90;;;;;;;13.30;56.28;97944.08;104514;1256;72868;-68
2023/03/09 04:26:59;;;;;;;6.60;6.00;;;;;;;13.30;56.28;97940.80;104979;1250;61724;-68
2023/03/09 04:30:00;;;;;;;8.70;5.90;;;;;;;13.31;56.71;97935.58;104666;1254;61586;-70
2023/03/09 04:32:32;;;;;;;6.60;5.80;;;;;;;13.39;56.52;97937.02;104759;1251;73781;-71
2023/03/09 04:35:06;;;;;;;7.10;5.70;;;;;;;13.43;55.69;97933.74;104908;1253;68839;-70
2023/03/09 04:37:37;;;;;;;7.70;6.70;;;;;;;13.40;56.11;97924.95;104772;1254;72382;-70
2023/03/09 04:40:06;;;;;;;7.10;6.00;;;;;;;13.46;55.74;97910.08;104698;1268;61718;-71
2023/03/09 04:42:35;;;;;;;7.00;6.40;;;;;;;13.49;55.75;97905.77;104795;1250;61685;-71
2023/03/09 04:45:04;;;;;;;8.30;6.10;;;;;;;13.54;55.82;97900.75;104623;1254;73270;-65
2023/03/09 04:47:33;;;;;;;7.40;6.10;;;;;;;13.59;56.28;97890.17;104826;1254;70537;-65
2023/03/09 04:50:02;;;;;;;6.50;5.80;;;;;;;13.58;56.09;97888.09;104611;1263;71979;-67
2023/03/09 04:52:34;;;;;;;7.10;6.40;;;;;;;13.55;56.31;97885.38;104782;1263;62137;-64
2023/03/09 04:55:03;;;;;;;6.50;5.70;;;;;;;13.55;56.44;97881.91;104689;1251;61695;-65
2023/03/09 04:57:33;;;;;;;6.80;5.50;;;;;;;13.57;56.87;97872.02;104842;1267;73521;-64
2023/03/09 05:00:04;;;;;;;6.00;5.40;;;;;;;13.60;56.88;97868.23;105441;1250;68391;-65
2023/03/09 05:02:32;;;;;;;6.60;5.40;;;;;;;13.68;56.46;97860.60;108809;1250;71822;-66
2023/03/09 05:05:01;;;;;;;6.20;5.40;;;;;;;13.72;56.51;97856.17;105449;1253;61737;-65
2023/03/09 05:07:31;;;;;;;6.10;5.40;;;;;;;13.70;57.11;97844.55;104990;1251;61723;-66
2023/03/09 05:10:08;;;;;;;7.60;5.70;;;;;;;13.66;57.30;97833.45;105260;1249;72676;-64
2023/03/09 05:12:41;;;;;;;7.90;5.70;;;;;;;13.59;57.95;97828.71;104759;1266;68252;-65
2023/03/09 05:15:13;;;;;;;6.50;5.90;;;;;;;13.65;57.60;97818.78;104887;1253;72932;-65
2023/03/09 05:17:44;;;;;;;5.90;5.30;;;;;;;13.69;57.47;97818.61;104764;1250;61723;-72
2023/03/09 05:20:17;;;;;;;6.70;5.70;;;;;;;13.79;56.95;97817.36;104805;1251;61701;-73
2023/03/09 05:22:55;;;;;;;7.20;5.70;;;;;;;13.84;56.73;97815.55;104882;1250;74964;-72
2023/03/09 05:25:24;;;;;;;6.60;5.40;;;;;;;13.87;57.20;97809.11;105002;1259;70341;-73
2023/03/09 05:27:53;;;;;;;6.70;5.90;;;;;;;13.91;57.80;97805.64;104845;1253;72972;-72
2023/03/09 05:30:23;;;;;;;5.40;4.90;;;;;;;13.95;56.94;97808.59;104850;1266;62099;-72
2023/03/09 05:32:52;;;;;;;6.40;5.70;;;;;;;14.06;56.80;97813.48;104727;1254;61097;-73
2023/03/09 05:35:23;;;;;;;6.30;5.70;;;;;;;14.12;57.06;97816.47;104717;1255;72731;-72
2023/03/09 05:37:53;;;;;;;8.20;6.80;;;;;;;14.15;56.69;97813.45;104673;1251;70253;-66
2023/03/09 05:40:24;;;;;;;7.50;5.90;;;;;;;14.21;57.00;97814.69;104717;1253;72504;-67
2023/03/09 05:42:57;;;;;;;7.70;6.50;;;;;;;14.09;57.56;97805.85;104714;1262;61672;-65
2023/03/09 05:45:25;;;;;;;7.80;6.10;;;;;;;14.13;57.22;97807.95;104645;1251;61687;-71
2023/03/09 05:47:55;;;;;;;7.20;6.20;;;;;;;14.26;56.58;97804.73;104906;1254;73450;-69
2023/03/09 05:50:24;;;;;;;6.60;6.00;;;;;;;14.33;56.27;97809.73;104880;1265;68856;-71
2023/03/09 05:52:53;;;;;;;7.90;6.40;;;;;;;14.39;56.54;97805.30;104887;1255;73345;-72
2023/03/09 05:55:22;;;;;;;6.30;5.70;;;;;;;14.43;56.39;97810.31;104841;1251;61678;-74
2023/03/09 05:57:51;;;;;;;6.80;6.00;;;;;;;14.52;56.28;97811.11;105033;1264;61488;-63
2023/03/09 06:00:20;;;;;;;5.10;4.70;;;;;;;14.51;56.27;97814.32;105087;1259;73466;-63
2023/03/09 06:02:53;;;;;;;7.70;5.50;;;;;;;14.64;56.17;97812.89;104799;1265;69102;-62
2023/03/09 06:05:27;;;;;;;8.30;5.40;;;;;;;14.71;55.46;97806.07;104921;1254;71495;-62
2023/03/09 06:07:55;;;;;;;6.60;5.40;;;;;;;14.81;55.03;97806.45;105213;1250;61706;-62
2023/03/09 06:10:28;;;;;;;6.40;5.30;;;;;;;14.88;55.22;97804.96;104753;1267;61016;-63
2023/03/09 06:12:57;;;;;;;6.40;5.40;;;;;;;14.89;55.13;97800.23;104836;1254;74039;-64
2023/03/09 06:15:27;;;;;;;6.00;5.40;;;;;;;14.93;54.81;97803.40;105141;1249;68484;-66
2023/03/09 06:17:58;;;;;;;6.20;5.60;;;;;;;15.06;54.53;97790.25;104724;1262;72583;-68
2023/03/09 06:20:28;;;;;;;5.40;4.90;;;;;;;15.16;54.25;97796.05;105074;1251;61567;-67
2023/03/09 06:22:59;;;;;;;5.30;4.70;;;;;;;15.27;54.35;97791.38;105057;1250;61614;-66
2023/03/09 06:25:28;;;;;;;5.00;4.50;;;;;;;15.40;54.26;97789.29;104854;1254;72472;-70
2023/03/09 06:27:57;;;;;;;5.60;4.70;;;;;;;15.48;53.16;97792.21;104875;1250;70476;-69
2023/03/09 06:30:28;;;;;;;5.40;4.90;;;;;;;15.47;53.28;97793.22;104749;1250;72100;-66
2023/03/09 06:32:58;;;;;;;5.40;4.90;;;;;;;15.57;53.38;97793.40;104795;1256;61638;-67
2023/03/09 06:35:28;;;;;;;5.90;5.10;;;;;;;15.60;53.16;97790.44;104782;1256;61711;-65
2023/03/09 06:38:00;;;;;;;7.00;4.50;;;;;;;15.71;52.56;97789.02;105158;1254;74835;-64
2023/03/09 06:40:30;;;;;;;5.10;4.60;;;;;;;15.91;52.75;97788.23;104974;1259;68263;-69
2023/03/09 06:43:01;;;;;;;6.50;5.10;;;;;;;16.19;52.19;97789.70;104530;1256;71250;-67
2023/03/09 06:45:32;;;;;;;6.10;5.50;;;;;;;16.16;51.64;97797.08;104909;1251;61678;-67
2023/03/09 06:48:01;;;;;;;5.90;5.00;;;;;;;16.19;50.95;97789.19;105090;1250;61687;-69
2023/03/09 06:50:32;;;;;;;5.40;4.90;;;;;;;16.13;51.40;97792.52;104564;1261;73538;-68
2023/03/09 06:53:01;;;;;;;6.60;5.70;;;;;;;15.95;50.96;97797.13;104510;1251;69251;-70
2023/03/09 06:55:31;;;;;;;5.60;5.00;;;;;;;16.19;50.82;97787.73;104910;1251;72736;-70
2023/03/09 06:58:00;;;;;;;7.00;5.70;;;;;;;16.01;51.00;97784.75;104973;1254;61707;-71
2023/03/09 07:00:28;;;;;;;8.30;6.20;;;;;;;15.78;51.50;97784.02;104905;1266;60983;-70
2023/03/09 07:03:01;;;;;;;6.80;5.70;;;;;;;15.95;51.23;97781.54;104781;1273;73729;-68
2023/03/09 07:05:29;;;;;;;6.10;5.50;;;;;;;15.76;51.45;97780.95;105062;1250;69505;-70
2023/03/09 07:07:59;;;;;;;5.90;5.30;;;;;;;15.56;51.85;97780.16;105003;1251;73257;-71
2023/03/09 07:10:28;;;;;;;6.50;5.90;;;;;;;15.68;52.05;97779.60;105094;1265;61631;-71
2023/03/09 07:12:58;;;;;;;6.10;5.40;;;;;;;15.82;52.12;97789.33;105000;1265;61121;-70
2023/03/09 07:15:26;;;;;;;5.80;5.30;;;;;;;16.08;51.15;97786.81;104810;1250;72748;-70
2023/03/09 07:17:56;;;;;;;5.20;4.70;;;;;;;16.23;50.94;97783.67;104870;1250;70192;-71
2023/03/09 07:20:25;;;;;;;6.90;5.40;;;;;;;16.18;50.59;97779.16;105026;1266;71247;-70
2023/03/09 07:22:57;;;;;;;6.30;5.70;;;;;;;16.25;50.54;97776.45;104982;1255;61946;-70
2023/03/09 07:25:25;;;;;;;8.00;5.50;;;;;;;16.33;50.67;97769.27;104980;1250;61626;-70
2023/03/09 07:27:53;;;;;;;6.00;5.40;;;;;;;16.33;50.31;97772.85;105078;1249;75079;-70
2023/03/09 07:30:25;;;;;;;7.60;5.60;;;;;;;16.42;49.98;97768.25;104623;1272;69406;-70
2023/03/09 07:32:55;;;;;;;6.60;5.40;;;;;;;16.39;49.79;97773.70;105191;1254;71227;-69
2023/03/09 07:35:26;;;;;;;7.00;6.00;;;;;;;16.50;50.19;97775.78;105113;1264;61685;-70
2023/03/09 07:37:54;;;;;;;6.30;5.70;;;;;;;16.60;49.45;97775.55;105679;1251;61566;-70
2023/03/09 07:40:23;;;;;;;7.10;6.40;;;;;;;16.60;49.53;97773.29;105075;1251;73462;-70
2023/03/09 07:42:53;;;;;;;6.80;5.30;;;;;;;16.78;49.25;97764.20;105307;1254;68830;-71
2023/03/09 07:45:40;;;;;;;8.50;5.70;;;;;;;17.07;48.48;97761.69;106075;1250;73552;-70
2023/03/09 07:48:11;;;;;;;7.70;5.60;;;;;;;17.05;48.43;97757.38;108548;1249;59676;-70
2023/03/09 07:50:39;;;;;;;6.40;5.50;;;;;;;17.20;48.15;97760.10;105546;1251;61608;-70
2023/03/09 07:53:07;;;;;;;7.50;5.10;;;;;;;17.18;48.21;97755.36;104879;1250;74027;-70
2023/03/09 07:55:40;;;;;;;5.90;4.50;;;;;;;17.25;47.85;97758.02;105453;1254;68238;-69
2023/03/09 07:58:09;;;;;;;5.60;5.10;;;;;;;17.33;46.97;97757.61;105023;1253;73620;-69
2023/03/09 08:00:37;;;;;;;6.10;5.50;;;;;;;17.28;46.99;97763.14;104597;1251;61730;-68
2023/03/09 08:03:06;;;;;;;7.90;6.00;;;;;;;17.44;47.23;97766.18;104801;1250;61593;-70
2023/03/09 08:05:35;;;;;;;6.70;5.70;;;;;;;17.46;46.75;97773.21;104830;1269;73413;-70
2023/03/09 08:08:07;;;;;;;6.20;5.60;;;;;;;17.51;46.53;97769.02;105463;1249;70100;-68
2023/03/09 08:10:36;;;;;;;5.60;4.50;;;;;;;17.58;46.16;97769.73;105458;1249;71970;-70
2023/03/09 08:13:09;;;;;;;6.70;5.30;;;;;;;17.47;46.25;97766.09;105088;1252;61584;-69
2023/03/09 08:15:39;;;;;;;5.80;5.20;;;;;;;17.62;46.35;97759.96;104809;1254;62217;-66
2023/03/09 08:18:11;;;;;;;5.90;5.30;;;;;;;17.71;46.41;97760.30;104847;1251;73345;-68
2023/03/09 08:20:41;;;;;;;5.00;4.60;;;;;;;17.65;46.44;97753.80;104616;1254;69383;-68
2023/03/09 08:23:10;;;;;;;8.40;5.40;;;;;;;17.98;46.06;97750.10;104602;1266;72086;-67
2023/03/09 08:25:41;;;;;;;5.90;4.90;;;;;;;18.12;45.31;97753.10;104687;1262;61711;-67
2023/03/09 08:28:13;;;;;;;7.20;5.20;;;;;;;18.12;45.62;97758.05;104594;1250;61694;-68
2023/03/09 08:30:41;;;;;;;6.00;5.30;;;;;;;17.92;45.69;97758.86;104644;1254;73616;-68
2023/03/09 08:33:10;;;;;;;5.60;4.90;;;;;;;18.35;45.06;97752.66;104681;1267;69629;-66
2023/03/09 08:35:38;;;;;;;4.60;4.00;;;;;;;18.67;44.52;97748.95;104698;1259;70751;-66
2023/03/09 08:38:07;;;;;;;5.30;4.60;;;;;;;18.71;44.17;97755.27;104667;1254;61680;-65
2023/03/09 08:40:37;;;;;;;6.50;5.30;;;;;;;18.55;44.12;97750.48;104759;1250;61686;-67
2023/03/09 08:43:06;;;;;;;6.90;4.80;;;;;;;18.77;44.34;97746.30;104578;1253;73424;-67
2023/03/09 08:45:37;;;;;;;4.70;4.30;;;;;;;19.05;43.96;97747.20;104986;1251;68742;-65
2023/03/09 08:48:05;;;;;;;6.00;4.60;;;;;;;19.24;43.54;97744.31;104834;1266;71573;-69
2023/03/09 08:50:34;;;;;;;5.00;4.50;;;;;;;19.14;43.49;97746.75;104936;1253;61686;-69
2023/03/09 08:53:03;;;;;;;4.50;4.10;;;;;;;19.33;42.88;97743.64;104768;1251;61704;-68
2023/03/09 08:55:33;;;;;;;5.00;4.00;;;;;;;19.49;43.25;97744.02;104641;1264;74224;-67
2023/03/09 08:58:04;;;;;;;5.90;3.70;;;;;;;19.78;42.34;97745.50;104934;1251;70339;-66
2023/03/09 09:00:33;;;;;;;5.10;3.90;;;;;;;19.78;42.15;97746.17;105153;1250;72076;-70
2023/03/09 09:03:03;;;;;;;5.10;4.30;;;;;;;19.84;41.90;97748.04;105193;1254;61695;-67
2023/03/09 09:05:31;;;;;;;5.40;3.80;;;;;;;19.67;41.63;97748.10;108247;1250;61629;-69
2023/03/09 09:08:00;;;;;;;4.50;3.10;;;;;;;19.64;41.67;97752.17;105717;1252;73426;-67
2023/03/09 09:10:29;;;;;;;4.70;3.50;;;;;;;19.22;41.68;97760.62;105424;1251;69188;-68
2023/03/09 09:13:03;;;;;;;4.30;3.60;;;;;;;19.24;42.30;97762.52;104943;1259;72249;-65
2023/03/09 09:15:32;;;;;;;5.10;3.40;;;;;;;19.24;42.13;97765.23;106516;1252;61733;-66
2023/03/09 09:18:01;;;;;;;4.20;3.40;;;;;;;19.40;42.22;97763.79;104642;1254;61696;-66
2023/03/09 09:20:29;;;;;;;3.40;3.10;;;;;;;19.41;41.97;97765.52;104572;1259;73221;-67
2023/03/09 09:23:02;;;;;;;4.30;3.40;;;;;;;19.51;41.18;97765.11;104745;1254;69462;-68
2023/03/09 09:25:31;;;;;;;4.90;3.40;;;;;;;19.20;41.84;97765.11;104632;1250;73783;-67
2023/03/09 09:28:05;;;;;;;5.20;3.40;;;;;;;19.23;42.16;97769.02;104541;1269;61577;-67
2023/03/09 09:30:35;;;;;;;4.50;3.00;;;;;;;19.23;42.10;97769.95;104747;1268;61794;-67
2023/03/09 09:33:04;;;;;;;4.40;3.20;;;;;;;19.29;42.20;97768.05;104537;1254;74232;-67
2023/03/09 09:35:34;;;;;;;3.40;3.10;;;;;;;19.22;42.42;97767.89;104735;1253;70235;-67
2023/03/09 09:38:02;;;;;;;4.40;3.20;;;;;;;19.30;42.71;97771.19;104693;1270;73244;-70
2023/03/09 09:40:31;;;;;;;5.10;3.40;;;;;;;19.40;42.13;97767.27;104646;1250;61684;-67
2023/03/09 09:42:59;;;;;;;3.60;3.20;;;;;;;19.39;42.32;97770.33;104601;1250;61641;-68
2023/03/09 09:45:34;;;;;;;3.80;3.20;;;;;;;19.34;42.33;97766.96;104666;1250;74645;-68
2023/03/09 09:48:06;;;;;;;4.30;3.50;;;;;;;19.19;42.92;97768.42;105082;1251;69639;-67
2023/03/09 09:50:59;;;;;;;3.80;3.20;;;;;;;19.48;42.69;97760.30;104923;1252;72226;-67
2023/03/09 09:53:41;;;;;;;3.40;3.10;;;;;;;19.84;42.23;97749.80;104611;1250;61719;-68
2023/03/09 09:56:12;;;;;;;3.70;3.30;;;;;;;19.94;41.71;97744.56;105064;1251;332268;-70
2023/03/09 09:59:41;;;;;;;3.80;2.90;;;;;;;18.86;45.73;97749.70;101831;1287;599874;-68
2023/03/09 10:02:09;;;;;;;4.20;3.10;;;;;;;19.74;41.95;97744.14;104312;1268;60764;-69
2023/03/09 10:04:56;;;;;;;4.40;3.20;;;;;;;19.62;42.07;97742.45;104787;1259;60483;-68
2023/03/09 10:07:25;;;;;;;3.20;2.90;;;;;;;19.73;41.60;97738.70;104961;1256;72740;-69
2023/03/09 10:09:58;;;;;;;5.70;3.50;;;;;;;19.85;41.47;97735.13;104665;1256;68988;-68
2023/03/09 10:12:26;;;;;;;4.00;3.40;;;;;;;20.13;41.56;97733.30;104783;1260;241091;-67
2023/03/09 10:14:57;;;;;;;5.60;3.60;;;;;;;20.34;41.41;97734.04;104900;1268;60368;-66
2023/03/09 10:17:42;;;;;;;4.10;3.30;;;;;;;20.48;40.25;97729.47;105011;1253;62502;-68
2023/03/09 10:20:19;;;;;;;5.00;4.20;;;;;;;20.06;40.25;97729.55;104623;1268;71505;-68
2023/03/09 10:22:49;;;;;;;4.50;3.40;;;;;;;20.38;40.01;97722.60;104520;1256;68483;-67
2023/03/09 10:25:20;;;;;;;4.00;3.60;;;;;;;20.61;39.84;97716.91;104625;1257;72924;-69
2023/03/09 10:28:01;;;;;;;3.50;3.20;;;;;;;20.97;39.35;97705.87;104753;1256;60857;-65
2023/03/09 10:30:48;;;;;;;4.20;3.60;;;;;;;21.06;38.30;97697.64;104635;1259;60924;-71
2023/03/09 10:33:20;;;;;;;6.20;3.60;;;;;;;21.24;37.90;97696.33;104643;1263;73361;-71
2023/03/09 10:36:08;;;;;;;3.20;2.90;;;;;;;21.11;37.80;97693.86;105141;1253;68402;-71
2023/03/09 10:38:38;;;;;;;3.90;3.00;;;;;;;21.15;37.75;97686.66;105190;1253;73473;-71
2023/03/09 10:41:17;;;;;;;4.80;3.10;;;;;;;21.23;38.04;97682.88;105007;1254;60879;-70
2023/03/09 10:43:46;;;;;;;4.20;3.70;;;;;;;21.34;37.59;97685.65;104728;1254;60888;-66
2023/03/09 10:46:15;;;;;;;4.50;3.30;;;;;;;21.30;37.82;97684.26;105092;1252;72389;-66
2023/03/09 10:48:44;;;;;;;3.70;2.80;;;;;;;21.25;37.79;97682.99;105134;1252;70820;-68
2023/03/09 10:51:25;;;;;;;4.60;3.00;;;;;;;21.17;37.83;97682.15;105041;1250;72950;-68
2023/03/09 10:53:54;;;;;;;3.10;2.80;;;;;;;21.31;37.84;97678.02;105047;1250;60895;-68
2023/03/09 10:56:29;;;;;;;3.20;2.80;;;;;;;21.21;38.18;97684.36;104942;1256;60860;-68
2023/03/09 10:59:07;;;;;;;4.30;3.20;;;;;;;21.23;38.24;97685.05;105081;1250;72481;-69
2023/03/09 11:01:42;;;;;;;4.20;2.90;;;;;;;21.23;38.25;97688.26;105457;1258;69995;-67
2023/03/09 11:04:23;;;;;;;4.00;3.20;;;;;;;21.39;38.26;97686.66;105558;1252;73388;-67
2023/03/09 11:06:59;;;;;;;3.50;3.20;;;;;;;21.24;38.58;97683.27;105581;1249;60896;-67
2023/03/09 11:09:36;;;;;;;5.70;3.10;;;;;;;21.24;38.65;97676.35;105417;1252;60587;-65
2023/03/09 11:12:34;;;;;;;5.50;3.00;;;;;;;21.27;38.34;97674.38;105372;1250;72999;-67
2023/03/09 11:15:13;;;;;;;4.70;2.90;;;;;;;21.20;38.55;97667.34;105242;1249;70181;-69
2023/03/09 11:17:46;;;;;;;3.60;2.60;;;;;;;21.45;38.95;97661.95;104778;1255;73147;-67
2023/03/09 11:20:29;;;;;;;4.20;2.60;;;;;;;21.56;38.64;97658.48;105354;1255;60796;-67
2023/03/09 11:22:59;;;;;;;4.10;3.00;;;;;;;21.61;38.79;97656.34;104987;1252;60853;-69
2023/03/09 11:25:33;;;;;;;5.70;3.00;;;;;;;21.62;38.94;97650.33;104976;1269;72964;-67
2023/03/09 11:28:20;;;;;;;3.10;2.80;;;;;;;21.88;38.92;97646.81;104993;1250;68340;-69
2023/03/09 11:30:49;;;;;;;;;;;;;;;21.82;38.92;97647.35;105015;1253;72040;-68
2023/03/09 11:33:20;;;;;;;2.70;2.30;;;;;;;21.95;38.37;97646.73;104878;1256;60908;-70
2023/03/09 11:35:51;;;;;;;2.90;2.60;;;;;;;21.90;38.06;97644.95;104976;1272;60780;-69
2023/03/09 11:38:20;;;;;;;2.60;2.40;;;;;;;21.95;37.85;97641.84;104969;1250;72836;-67
2023/03/09 11:40:53;;;;;;;2.70;2.30;;;;;;;22.02;37.96;97632.66;105135;1250;69182;-70
2023/03/09 11:43:34;;;;;;;3.20;2.70;;;;;;;22.42;37.84;97625.84;104634;1251;72107;-68